ADDS METAR Data INFO
IDs: Format: Raw Decoded Include TAF

Data at: 1537 UTC 18 Jan 2018

METAR for:KMRT (Marysville/Union Cnt, OH, US)
Text:KMRT 181535Z AUTO 24012KT 10SM CLR M07/M13 A3025 RMK AO2 T10741130
Temperature: -7.4°C ( 19°F)
Dewpoint:-13.0°C ( 9°F) [RH = 64%]
Pressure (altimeter):30.25 inches Hg (1024.5 mb)
Winds:from the WSW (240 degrees) at 14 MPH (12 knots; 6.2 m/s)
Visibility:10 or more sm (16+ km)
Ceiling:at least 12,000 feet AGL
Clouds:sky clear below 12,000 feet AGL
QC Flag:automated observation with no human augmentation